ADDS METAR Data INFO
IDs: Format: Raw Decoded Include TAF

Data at: 2052 UTC 24 Jun 2018

KAUS 241953Z 16017G24KT 10SM SCT055 SCT200 36/21 A2985 RMK AO2 SLP095 T03560206 $
KAUS 241853Z 18015G25KT 10SM SCT050 SCT200 36/21 A2986 RMK AO2 SLP098 T03560211 $
KAUS 241753Z 15019G23KT 10SM SCT046 SCT200 34/21 A2987 RMK AO2 SLP102 T03390211 10344 20250 53005 $
KAUS 241653Z 18015G24KT 10SM SCT042 SCT200 33/21 A2987 RMK AO2 SLP100 T03330211 $
KAUS 241553Z 21012G19KT 10SM SCT034 SCT200 32/22 A2986 RMK AO2 SLP098 T03170222 $
KAUS 241453Z 18017G25KT 10SM SCT027 SCT200 29/22 A2986 RMK AO2 PK WND 18029/1413 SLP098 T02940222 53007 $
KAUS 241353Z 19016G26KT 10SM SCT020 SCT200 28/22 A2985 RMK AO2 PK WND 19026/1349 SLP097 T02780222 $
KAUS 241253Z 18014KT 8SM FEW011 SCT200 26/23 A2984 RMK AO2 SLP092 T02610233 $
KAUS 241153Z 17009KT 7SM SCT011 SCT200 25/24 A2984 RMK AO2 SLP090 T02500239 10267 20250 56009 $
KAUS 241053Z 17011KT 10SM SCT020 SCT045 26/24 A2984 RMK AO2 SLP092 T02560239 $
KAUS 240953Z 17013KT 10SM FEW046 26/23 A2984 RMK AO2 SLP093 T02610233 $
KAUS 240853Z 18013KT 10SM BKN044 26/23 A2986 RMK AO2 SLP100 T02610233 50002 $
KAUS 240810Z 17010KT 10SM FEW021 SCT026 BKN044 27/23 A2988 RMK AO2 T02670233 $
KAUS 240753Z 17006KT 10SM BKN021 BKN028 OVC040 27/23 A2990 RMK AO2 SLP111 T02670233 $
KAUS 240653Z 20007KT 10SM BKN020 OVC025 27/23 A2990 RMK AO2 SLP113 T02670233 $
KAUS 240553Z 18012G19KT 10SM BKN020 BKN027 27/24 A2986 RMK AO2 SLP097 T02670239 10350 20267 403720233 51029 $
KAUS 240541Z 18012G19KT 10SM SCT019 BKN027 27/23 A2985 RMK AO2 T02670233 $
KAUS 240453Z 16013G20KT 10SM SCT021 BKN030 28/24 A2984 RMK AO2 SLP091 T02780239 $
KAUS 240431Z 16011KT 10SM FEW023 BKN030 28/24 A2983 RMK AO2 T02780239 $
KAUS 240406Z 16013KT 10SM FEW020 BKN027 28/24 A2983 RMK AO2 T02780239 $
KAUS 240353Z 16011G20KT 10SM FEW020 SCT027 28/24 A2982 RMK AO2 PK WND 15026/0330 SLP085 T02780239 $
KAUS 240253Z 16011KT 10SM SCT029 29/23 A2977 RMK AO2 SLP069 T02890233 53013 $
KAUS 240153Z 15015G22KT 10SM FEW050 FEW200 31/23 A2976 RMK AO2 SLP064 T03110228 $
KAUS 240053Z 16013KT 10SM CLR 33/22 A2974 RMK AO2 SLP059 T03280217 $
KAUS 232353Z 14019KT 10SM FEW050 35/22 A2973 RMK AO2 SLP056 T03500217 10372 20339 56010 $
KAUS 232253Z 15018G21KT 10SM FEW050 36/21 A2974 RMK AO2 SLP057 T03610211 $
KAUS 232153Z 15015G21KT 10SM FEW055 37/21 A2976 RMK AO2 PK WND 15026/2131 SLP062 T03670211 $
KAUS 232053Z 16015G25KT 10SM FEW060 37/21 A2976 RMK AO2 SLP065 T03670211 56025 $
KAUS 231953Z 16015G21KT 10SM FEW055 36/22 A2979 RMK AO2 PK WND 15026/1912 SLP073 T03610217 $
KAUS 231853Z 17014G22KT 10SM CLR 36/21 A2980 RMK AO2 SLP078 T03610211 $
KAUS 231753Z 20012G22KT 10SM FEW050 34/21 A2984 RMK AO2 SLP090 T03440211 10344 20239 56009 $
KAUS 231653Z AUTO 17014G22KT 10SM FEW032 33/22 A2984 RMK AO2 SLP092 T03280217 $
KAUS 231553Z 19014KT 10SM SCT028 31/22 A2986 RMK AO2 SLP096 T03110217 $
KAUS 231453Z 18013KT 10SM SCT024 29/22 A2986 RMK AO2 SLP100 T02940217 51011 $
KAUS 231416Z 18016G20KT 10SM SCT019 28/22 A2987 RMK AO2 T02780217 $
KAUS 231353Z 20014KT 10SM BKN015 27/22 A2986 RMK AO2 SLP099 T02720222 $
KAUS 231253Z 18009G19KT 10SM OVC015 25/23 A2984 RMK AO2 SLP092 T02500228 $
KAUS 231223Z 18010KT 10SM BKN013 24/23 A2984 RMK AO2 T02440228 $
KAUS 231153Z 17005KT 10SM CLR 24/23 A2983 RMK AO2 SLP089 T02390228 10272 20233 53006 $
KAUS 231053Z 18005KT 9SM CLR 24/23 A2981 RMK AO2 SLP083 T02390228 $
KAUS 230953Z 19005KT 10SM CLR 24/23 A2982 RMK AO2 SLP084 T02440233 $
KAUS 230853Z 18008KT 10SM FEW011 25/23 A2981 RMK AO2 SLP082 T02500233 55001 $